Latest Weather Observations for Warburton

IDD60801

Issued at 1:34 am CST Monday 18 November 2019 (issued every 10 minutes, with the page automatically refreshed every 10 minutes)

About weather observations | Map of weather stations | Latest weather observations for NT | Other Formats
Station Details ID: 013011 Name: WARBURTON AIRFIELD Lat: -26.13 Lon: 126.58 Height: 459.0 m
Data from the previous 72 hours. | See also: Recent months at Warburton
Date/Time
CST
Temp
°C
App
Temp
°C
Dew
Point
°C
Rel
Hum
%
Delta-T
°C
Wind Press
QNH
hPa
Press
MSL
hPa
Rain since
9am
mm
Dir  Spd
km/h
Gust
km/h
Spd
kts
Gust
kts
18/01:30am 28.9 24.3 -4.5 11 14.9 ESE 11 13 6 7 1017.1 1014.2 0.0
18/01:00am 30.0 24.6 -4.9 10 15.6 ESE 15 19 8 10 1017.5 1014.6 0.0
18/12:30am 29.4 24.4 -4.1 11 15.1 ESE 13 15 7 8 1017.8 1014.9 0.0
18/12:00am 28.9 24.3 -4.5 11 14.9 ESE 11 13 6 7 1018.0 1015.1 0.0
 
Date/Time
CST
Temp
°C
App
Temp
°C
Dew
Point
°C
Rel
Hum
%
Delta-T
°C
Wind Press
QNH
hPa
Press
MSL
hPa
Rain since
9am
mm
Dir  Spd
km/h
Gust
km/h
Spd
kts
Gust
kts
17/11:30pm 29.5 24.9 -4.0 11 15.2 ESE 11 15 6 8 1018.2 1015.3 0.0
17/11:00pm 30.1 25.6 -3.6 11 15.5 ESE 11 13 6 7 1018.3 1015.4 0.0
17/10:30pm 30.8 26.2 -4.3 10 16.0 ESE 11 15 6 8 1018.1 1015.2 0.0
17/10:00pm 31.6 27.0 -3.7 10 16.4 ESE 11 13 6 7 1018.0 1015.1 0.0
17/09:30pm 32.3 27.8 -3.2 10 16.7 ESE 11 13 6 7 1017.7 1014.8 0.0
17/09:00pm 34.1 29.2 -3.2 9 17.7 ESE 13 17 7 9 1017.6 1014.7 0.0
17/08:30pm 35.4 29.7 -3.8 8 18.6 ESE 17 26 9 14 1017.4 1014.5 0.0
17/08:00pm 36.3 30.1 -3.2 8 19.1 SE 20 26 11 14 1017.1 1014.2 0.0
17/07:30pm 37.4 29.9 -4.2 7 19.9 SE 26 37 14 20 1016.5 1013.7 0.0
17/07:00pm 38.2 30.8 -3.6 7 20.3 SE 26 37 14 20 1016.1 1013.2 0.0
17/06:30pm 38.9 31.2 -3.1 7 20.7 SSE 28 39 15 21 1015.8 1012.9 0.0
17/06:00pm 39.4 31.1 -4.8 6 21.3 SE 30 43 16 23 1015.6 1012.7 0.0
17/05:33pm 40.0 32.1 -4.3 6 21.6 SSE 28 50 15 27 1015.7 1012.8 0.0
17/05:30pm 39.8 32.3 -4.5 6 21.4 SSE 26 39 14 21 1015.6 1012.7 0.0
17/05:04pm 39.6 31.3 -4.6 6 21.4 SSE 30 50 16 27 1015.7 1012.8 0.0
17/05:00pm 40.2 32.0 -4.2 6 21.7 SE 30 44 16 24 1015.7 1012.8 0.0
17/04:42pm 40.3 32.5 -4.1 6 21.7 SSE 28 43 15 23 1015.7 1012.8 0.0
17/04:30pm 40.2 33.5 -4.2 6 21.7 ESE 22 37 12 20 1015.8 1012.9 0.0
17/04:00pm 40.3 32.5 -4.1 6 21.7 SE 28 43 15 23 1016.0 1013.1 0.0
17/03:41pm 40.8 33.0 -3.8 6 22.0 SE 28 48 15 26 1016.2 1013.3 0.0
17/03:30pm 40.6 33.9 -3.9 6 21.8 SSE 22 37 12 20 1016.3 1013.4 0.0
17/03:13pm 40.2 32.4 -4.2 6 21.7 SE 28 48 15 26 1016.5 1013.7 0.0
17/03:00pm 40.3 32.8 -4.1 6 21.7 SE 26 44 14 24 1016.5 1013.7 0.0
17/02:47pm 40.9 33.1 -3.7 6 22.0 ESE 28 48 15 26 1016.6 1013.8 0.0
17/02:30pm 41.0 33.2 -3.6 6 22.0 SSE 28 43 15 23 1016.9 1014.0 0.0
17/02:00pm 40.4 33.3 -4.1 6 21.8 ESE 24 39 13 21 1017.3 1014.4 0.0
17/01:30pm 39.8 32.7 -4.5 6 21.4 ESE 24 39 13 21 1017.9 1015.0 0.0
17/01:00pm 39.5 33.6 -2.6 7 21.0 SE 19 35 10 19 1018.2 1015.3 0.0
17/12:30pm 39.7 33.8 -2.5 7 21.0 SSE 19 32 10 17 1018.4 1015.6 0.0
17/12:00pm 38.5 33.6 -3.4 7 20.5 E 13 26 7 14 1018.8 1016.0 0.0
17/11:30am 38.0 33.7 -1.9 8 19.8 S 11 17 6 9 1019.2 1016.3 0.0
17/11:00am 36.9 31.7 -2.7 8 19.4 NE 15 28 8 15 1019.4 1016.5 0.0
17/10:30am 36.4 30.4 -3.1 8 19.1 NNE 19 26 10 14 1019.6 1016.7 0.0
17/10:00am 36.6 30.4 -3.0 8 19.2 NE 20 28 11 15 1019.7 1016.8 0.0
17/09:30am 35.0 28.5 -2.6 9 18.1 NE 22 33 12 18 1019.8 1016.9 0.0
17/09:00am 33.5 27.2 -3.7 9 17.5 NE 20 30 11 16 1019.8 1016.9 0.0
17/08:30am 32.1 25.9 -3.3 10 16.5 NE 20 28 11 15 1019.8 1016.9 0.0
17/08:00am 30.4 25.1 -3.3 11 15.6 NE 15 22 8 12 1019.6 1016.7 0.0
17/07:30am 28.2 22.5 -3.9 12 14.4 NNE 17 24 9 13 1019.3 1016.4 0.0
17/07:00am 27.1 21.0 -3.7 13 13.8 NE 19 26 10 14 1019.2 1016.3 0.0
17/06:30am 26.3 20.7 -3.3 14 13.2 NE 17 26 9 14 1018.9 1016.1 0.0
17/06:00am 26.1 20.8 -3.5 14 13.2 NE 15 24 8 13 1018.8 1016.0 0.0
17/05:30am 26.9 21.2 -3.8 13 13.7 ENE 17 24 9 13 1018.5 1015.7 0.0
17/05:00am 27.4 21.7 -3.4 13 13.9 ENE 17 26 9 14 1018.5 1015.7 0.0
17/04:30am 27.6 21.6 -3.3 13 14.0 ENE 19 28 10 15 1018.6 1015.8 0.0
17/04:00am 28.1 22.4 -3.9 12 14.4 ENE 17 26 9 14 1018.7 1015.9 0.0
17/03:30am 27.7 22.7 -4.3 12 14.2 E 13 17 7 9 1018.9 1016.1 0.0
17/03:00am 28.3 23.0 -3.8 12 14.5 E 15 24 8 13 1019.1 1016.2 0.0
17/02:30am 29.0 22.8 -4.4 11 15.0 E 19 26 10 14 1019.2 1016.3 0.0
17/02:00am 29.7 23.6 -3.9 11 15.3 E 19 26 10 14 1019.3 1016.4 0.0
17/01:30am 30.2 24.5 -3.5 11 15.5 E 17 24 9 13 1019.5 1016.6 0.0
17/01:00am 30.5 24.1 -4.5 10 15.9 ESE 20 26 11 14 1019.7 1016.8 0.0
17/12:30am 29.0 23.5 -5.7 10 15.2 ESE 15 19 8 10 1019.9 1017.0 0.0
17/12:00am 28.4 23.3 -4.9 11 14.7 ESE 13 17 7 9 1020.1 1017.2 0.0
 
Date/Time
CST
Temp
°C
App
Temp
°C
Dew
Point
°C
Rel
Hum
%
Delta-T
°C
Wind Press
QNH
hPa
Press
MSL
hPa
Rain since
9am
mm
Dir  Spd
km/h
Gust
km/h
Spd
kts
Gust
kts
16/11:30pm 29.1 24.0 -5.6 10 15.2 ESE 13 15 7 8 1019.9 1017.0 0.0
16/11:00pm 29.7 24.6 -5.1 10 15.5 SE 13 17 7 9 1019.9 1017.0 0.0
16/10:30pm 29.5 24.4 -5.3 10 15.4 SE 13 13 7 7 1019.7 1016.8 0.0
16/10:00pm 30.2 25.4 -6.1 9 16.0 ESE 11 13 6 7 1019.4 1016.5 0.0
16/09:30pm 29.6 25.5 -6.6 9 15.7 ESE 7 9 4 5 1019.1 1016.2 0.0
16/09:00pm 32.7 28.3 -5.8 8 17.4 SE 9 11 5 6 1018.7 1015.9 0.0
16/08:30pm 34.6 29.2 -4.4 8 18.2 SE 15 19 8 10 1018.5 1015.7 0.0
16/08:00pm 35.4 28.9 -5.6 7 18.9 SE 20 26 11 14 1018.2 1015.3 0.0
16/07:30pm 36.2 29.4 -5.0 7 19.3 ESE 22 33 12 18 1017.7 1014.8 0.0
16/07:00pm 37.2 29.9 -6.3 6 20.1 ESE 24 35 13 19 1017.3 1014.4 0.0
16/06:30pm 38.0 30.7 -5.8 6 20.5 ESE 24 35 13 19 1017.0 1014.1 0.0
16/06:00pm 38.7 30.7 -5.3 6 20.9 ESE 28 39 15 21 1016.8 1013.9 0.0
16/05:44pm 39.1 31.2 -5.0 6 21.1 ESE 28 46 15 25 1016.5 1013.7 0.0
16/05:30pm 38.4 31.9 -5.5 6 20.7 ESE 20 35 11 19 1016.6 1013.8 0.0
16/05:08pm 39.0 31.8 -5.1 6 21.1 SSE 24 50 13 27 1016.5 1013.7 0.0
16/05:00pm 39.0 31.8 -5.1 6 21.1 SSE 24 39 13 21 1016.4 1013.6 0.0
16/04:30pm 38.7 32.5 -5.3 6 20.9 SE 19 35 10 19 1016.5 1013.7 0.0
16/04:00pm 39.0 30.3 -5.1 6 21.1 SSE 32 48 17 26 1016.6 1013.8 0.0
16/03:30pm 38.8 31.2 -5.2 6 20.9 SSE 26 37 14 20 1016.9 1014.0 0.0
16/03:00pm 38.6 30.3 -5.3 6 20.8 ESE 30 48 16 26 1017.2 1014.3 0.0
16/02:40pm 39.2 31.7 -4.9 6 21.2 ESE 26 50 14 27 1017.2 1014.3 0.0
16/02:37pm 39.1 32.7 -5.0 6 21.1 SE 20 50 11 27 1017.1 1014.2 0.0
16/02:30pm 38.6 33.1 -5.3 6 20.8 SE 15 32 8 17 1017.2 1014.3 0.0
16/02:00pm 38.8 30.9 -5.2 6 20.9 ESE 28 43 15 23 1017.7 1014.8 0.0
16/01:51pm 39.2 32.4 -4.9 6 21.2 ESE 22 46 12 25 1017.7 1014.8 0.0
16/01:30pm 38.7 31.5 -5.3 6 20.9 ESE 24 41 13 22 1017.9 1015.0 0.0
16/01:00pm 38.0 31.9 -3.7 7 20.2 ESE 19 30 10 16 1018.1 1015.2 0.0
16/12:30pm 37.4 31.6 -4.2 7 19.9 NE 17 44 9 24 1018.4 1015.6 0.0
16/12:00pm 37.7 32.0 -3.9 7 20.1 E 17 33 9 18 1018.7 1015.9 0.0
16/11:30am 36.3 29.9 -5.0 7 19.3 ESE 20 33 11 18 1018.9 1016.1 0.0
16/11:00am 36.0 29.8 -5.2 7 19.2 ENE 19 30 10 16 1019.3 1016.4 0.0
16/10:30am 35.8 29.4 -5.3 7 19.1 ENE 20 30 11 16 1019.5 1016.6 0.0
16/10:00am 34.8 27.9 -6.0 7 18.6 NE 22 32 12 17 1019.6 1016.7 0.0
16/09:30am 33.1 26.3 -5.5 8 17.5 NE 22 30 12 16 1019.5 1016.6 0.0
16/09:00am 31.6 24.0 -5.1 9 16.6 NE 26 37 14 20 1019.5 1016.6 0.0
16/08:30am 30.0 22.3 -6.3 9 15.9 NE 26 39 14 21 1019.4 1016.5 0.0
16/08:00am 27.8 20.1 -6.6 10 14.7 NE 26 37 14 20 1019.2 1016.3 0.0
16/07:30am 26.8 19.9 -6.1 11 14.0 ENE 22 35 12 19 1019.1 1016.2 0.0
16/07:00am 26.0 20.8 -6.7 11 13.7 E 13 22 7 12 1018.9 1016.1 0.0
16/06:30am 24.3 19.0 -6.9 12 12.8 E 13 17 7 9 1018.6 1015.8 0.0
16/06:00am 24.0 18.7 -7.1 12 12.7 E 13 20 7 11 1018.3 1015.4 0.0
16/05:30am 23.8 18.1 -7.3 12 12.6 ESE 15 19 8 10 1017.8 1014.9 0.0
16/05:00am 25.0 18.3 -7.5 11 13.3 ESE 20 28 11 15 1017.3 1014.4 0.0
16/04:30am 25.7 18.7 -6.9 11 13.6 ESE 22 32 12 17 1017.2 1014.3 0.0
16/04:00am 25.3 18.7 -7.2 11 13.4 ESE 20 28 11 15 1017.2 1014.3 0.0
16/03:30am 25.7 19.2 -8.2 10 13.8 ESE 19 26 10 14 1017.1 1014.2 0.0
16/03:00am 26.2 19.4 -9.1 9 14.2 ESE 20 28 11 15 1017.1 1014.2 0.0
16/02:30am 26.0 19.8 -9.3 9 14.1 ESE 17 20 9 11 1017.0 1014.1 0.0
16/02:00am 26.1 19.8 -10.7 8 14.4 ESE 17 20 9 11 1017.0 1014.1 0.0
16/01:30am 25.6 19.5 -12.7 7 14.3 ESE 15 19 8 10 1017.1 1014.2 0.0
16/01:00am 25.9 19.3 -14.4 6 14.7 SE 17 22 9 12 1017.2 1014.3 0.0
16/12:30am 26.6 20.4 -13.9 6 15.0 ESE 15 20 8 11 1017.3 1014.4 0.0
16/12:00am 26.7 20.8 -16.0 5 15.3 SE 13 17 7 9 1017.4 1014.5 0.0
 
Date/Time
CST
Temp
°C
App
Temp
°C
Dew
Point
°C
Rel
Hum
%
Delta-T
°C
Wind Press
QNH
hPa
Press
MSL
hPa
Rain since
9am
mm
Dir  Spd
km/h
Gust
km/h
Spd
kts
Gust
kts
15/11:30pm 27.0 21.1 -15.8 5 15.4 ESE 13 15 7 8 1017.6 1014.7 0.0
15/11:00pm 27.7 21.5 -15.3 5 15.7 ESE 15 17 8 9 1017.6 1014.7 0.0
15/10:30pm 27.7 21.8 -15.3 5 15.7 ESE 13 15 7 8 1017.6 1014.7 0.0
15/10:00pm 27.5 22.0 -15.4 5 15.6 SE 11 13 6 7 1017.6 1014.7 0.0
15/09:30pm 28.2 23.1 -15.0 5 16.0 SE 9 13 5 7 1017.3 1014.4 0.0
15/09:00pm 29.1 23.9 -17.0 4 16.6 SE 9 11 5 6 1017.0 1014.1 0.0
15/08:30pm 31.2 25.7 -15.6 4 17.7 SSE 11 13 6 7 1016.5 1013.7 0.0
15/08:00pm 33.2 27.2 -17.6 3 19.0 SE 13 19 7 10 1016.2 1013.3 0.0
15/07:30pm 34.6 28.3 -16.7 3 19.7 SE 15 20 8 11 1015.8 1012.9 0.0
15/07:00pm 35.7 28.7 -16.0 3 20.3 SSE 19 28 10 15 1015.3 1012.4 0.0
15/06:30pm 36.5 28.9 -15.5 3 20.7 ESE 22 32 12 17 1015.0 1012.1 0.0
15/06:00pm 36.9 31.4 -15.2 3 20.9 SE 11 22 6 12 1014.8 1011.9 0.0
15/05:30pm 36.4 30.0 -12.0 4 20.4 S 17 28 9 15 1014.7 1011.8 0.0
15/05:00pm 37.2 31.6 -11.5 4 20.8 SE 13 30 7 16 1014.6 1011.7 0.0
15/04:30pm 36.7 30.7 -11.8 4 20.5 SSE 15 28 8 15 1014.7 1011.8 0.0
15/04:00pm 37.8 30.5 -11.1 4 21.1 ESE 22 44 12 24 1014.7 1011.8 0.0
15/03:59pm 37.4 30.1 -11.4 4 20.9 ESE 22 44 12 24 1014.5 1011.5 0.0
15/03:30pm 37.2 31.8 -8.7 5 20.5 ESE 13 24 7 13 1015.0 1012.1 0.0
15/03:00pm 36.5 31.0 -9.2 5 20.1 SW 13 32 7 17 1015.2 1012.3 0.0
15/02:30pm 37.7 33.1 -8.3 5 20.7 ESE 9 22 5 12 1015.3 1012.4 0.0
15/02:00pm 37.2 31.4 -8.7 5 20.5 SSE 15 28 8 15 1015.8 1012.9 0.0
15/01:30pm 36.8 31.0 -9.0 5 20.2 SE 15 26 8 14 1016.0 1013.1 0.0
15/01:00pm 36.1 30.2 -9.4 5 19.9 S 15 32 8 17 1016.3 1013.4 0.0
15/12:30pm 36.2 31.3 -7.0 6 19.6 ESE 11 32 6 17 1016.8 1013.9 0.0
15/12:00pm 35.5 29.4 -7.5 6 19.3 SE 17 26 9 14 1017.1 1014.2 0.0
15/11:30am 34.8 29.4 -8.0 6 18.9 E 13 20 7 11 1017.2 1014.3 0.0
15/11:00am 35.4 29.7 -7.6 6 19.2 E 15 30 8 16 1017.5 1014.6 0.0
15/10:30am 34.1 28.3 -8.5 6 18.6 ENE 15 30 8 16 1017.6 1014.7 0.0
15/10:00am 33.0 27.7 -7.3 7 17.8 E 13 19 7 10 1017.6 1014.7 0.0
15/09:30am 31.7 26.7 -8.3 7 17.1 ESE 11 19 6 10 1017.6 1014.7 0.0
15/09:00am 29.5 24.0 -9.9 7 16.1 SE 13 19 7 10 1017.9 1015.0 0.0
15/08:30am 27.9 22.4 -9.4 8 15.2 ESE 13 17 7 9 1017.8 1014.9 0.0
15/08:00am 26.1 20.3 -9.2 9 14.2 ESE 15 20 8 11 1017.7 1014.8 0.0
15/07:30am 23.2 18.4 -10.1 10 12.7 SE 9 13 5 7 1017.5 1014.6 0.0
15/07:00am 20.6 16.4 -9.8 12 11.4 SSE 6 9 3 5 1017.3 1014.4 0.0
15/06:30am 17.3 13.2 -8.7 16 9.6 S 6 9 3 5 1017.1 1014.2 0.0
15/06:00am 16.3 12.0 -9.5 16 9.3 SSE 7 9 4 5 1016.5 1013.7 0.0
15/05:30am 16.4 13.4 -9.4 16 9.3 CALM 0 0 0 0 1016.1 1013.2 0.0
15/05:00am 17.8 14.1 -9.1 15 9.9 SSW 4 7 2 4 1016.0 1013.1 0.0
15/04:30am 18.4 13.7 -8.7 15 10.1 S 9 11 5 6 1015.9 1013.0 0.0
15/04:00am 19.4 15.7 -8.7 14 10.6 S 4 7 2 4 1015.9 1013.0 0.0
15/03:30am 20.8 15.8 -8.6 13 11.3 SSW 11 13 6 7 1015.6 1012.7 0.0

Other formats

Comma delimited format used in spreadsheet applications
http://www.bom.gov.au/fwo/IDD60801/IDD60801.94457.axf

JavaScript Object Notation format (JSON) in row-major order
http://www.bom.gov.au/fwo/IDD60801/IDD60801.94457.json

Data quality

Most of these data are generated automatically and are frequently updated. Quality checks on data are not normally performed. It is possible for incorrect values to appear. Refer to information at About Latest Weather Observations and please check the disclaimer before using these data.